createdAt,value
2022-07-27T00:01:16.483Z,21.75
2022-07-27T00:03:45.943Z,21.72
2022-07-27T00:06:14.063Z,21.67
2022-07-27T00:08:41.633Z,21.63
2022-07-27T00:11:10.589Z,21.58
2022-07-27T00:13:38.098Z,21.57
2022-07-27T00:16:06.051Z,21.54
2022-07-27T00:18:36.699Z,21.51
2022-07-27T00:21:04.193Z,21.48
2022-07-27T00:23:31.582Z,21.43
2022-07-27T00:25:58.892Z,21.38
2022-07-27T00:28:26.185Z,21.34
2022-07-27T00:30:53.497Z,21.32
2022-07-27T00:33:20.795Z,21.31
2022-07-27T00:35:49.512Z,21.31
2022-07-27T00:38:16.909Z,21.31
2022-07-27T00:40:45.159Z,21.30
2022-07-27T00:43:12.964Z,21.29
2022-07-27T00:45:40.300Z,21.28
2022-07-27T00:48:07.682Z,21.26
2022-07-27T00:50:35.964Z,21.23
2022-07-27T00:53:04.999Z,21.22
2022-07-27T00:55:33.748Z,21.20
2022-07-27T00:58:02.246Z,21.19
2022-07-27T01:00:29.686Z,21.17
2022-07-27T01:02:57.912Z,21.14
2022-07-27T01:05:35.821Z,21.13
2022-07-27T01:08:07.794Z,21.08
2022-07-27T01:10:36.220Z,21.04
2022-07-27T01:13:03.652Z,21.01
2022-07-27T01:15:35.227Z,20.98
2022-07-27T01:18:10.406Z,20.96
2022-07-27T01:20:39.310Z,20.93
2022-07-27T01:23:08.128Z,20.91
2022-07-27T01:25:35.483Z,20.87
2022-07-27T01:28:02.802Z,20.84
2022-07-27T01:30:33.211Z,20.82
2022-07-27T01:33:02.294Z,20.79
2022-07-27T01:35:30.296Z,20.79
2022-07-27T01:37:58.408Z,20.76
2022-07-27T01:40:27.509Z,20.74
2022-07-27T01:42:55.076Z,20.71
2022-07-27T01:45:22.791Z,20.68
2022-07-27T01:47:50.275Z,20.65
2022-07-27T01:50:17.668Z,20.63
2022-07-27T01:52:45.028Z,20.62
2022-07-27T01:55:12.878Z,20.61
2022-07-27T01:57:41.624Z,20.62
2022-07-27T02:00:12.260Z,20.63
2022-07-27T02:02:40.731Z,20.64
2022-07-27T02:05:12.891Z,20.61
2022-07-27T02:07:40.836Z,20.58
2022-07-27T02:10:10.368Z,20.57
2022-07-27T02:12:38.208Z,20.56
2022-07-27T02:15:15.015Z,20.53
2022-07-27T02:17:44.798Z,20.55
2022-07-27T02:20:14.957Z,20.54
2022-07-27T02:22:43.017Z,20.53
2022-07-27T02:25:12.743Z,20.51
2022-07-27T02:27:41.776Z,20.50
2022-07-27T02:30:13.389Z,20.49
2022-07-27T02:32:44.364Z,20.49
2022-07-27T02:35:19.188Z,20.43
2022-07-27T02:37:47.746Z,20.38
2022-07-27T02:40:17.327Z,20.36
2022-07-27T02:42:45.960Z,20.33
2022-07-27T02:45:15.765Z,20.30
2022-07-27T02:47:43.672Z,20.30
2022-07-27T02:50:12.034Z,20.26
2022-07-27T02:52:39.927Z,20.23
2022-07-27T02:55:08.677Z,20.21
2022-07-27T02:57:37.988Z,20.18
2022-07-27T03:00:07.975Z,20.19
2022-07-27T03:02:36.686Z,20.22
2022-07-27T03:05:04.998Z,20.27
2022-07-27T03:07:32.802Z,20.28
2022-07-27T03:10:00.380Z,20.26
2022-07-27T03:12:27.878Z,20.22
2022-07-27T03:14:56.393Z,20.23
2022-07-27T03:17:23.741Z,20.19
2022-07-27T03:19:52.874Z,20.14
2022-07-27T03:22:20.321Z,20.08
2022-07-27T03:24:47.676Z,20.05
2022-07-27T03:27:15.068Z,20.02
2022-07-27T03:29:42.479Z,20.00
2022-07-27T03:32:09.839Z,19.95
2022-07-27T03:34:37.244Z,19.94
2022-07-27T03:37:06.099Z,19.90
2022-07-27T03:39:33.570Z,19.90
2022-07-27T03:42:00.885Z,19.90
2022-07-27T03:44:28.273Z,19.90
2022-07-27T03:46:55.620Z,19.90
2022-07-27T03:49:23.047Z,19.91
2022-07-27T03:51:50.944Z,19.90
2022-07-27T03:54:19.730Z,19.91
2022-07-27T03:56:47.382Z,19.94
2022-07-27T03:59:15.171Z,19.94
2022-07-27T04:01:42.875Z,19.92
2022-07-27T04:04:10.396Z,19.93
2022-07-27T04:06:37.776Z,19.90
2022-07-27T04:09:08.059Z,19.88
2022-07-27T04:11:50.543Z,19.85
2022-07-27T04:14:18.430Z,19.82
2022-07-27T04:16:45.864Z,19.82
2022-07-27T04:19:13.815Z,19.83
2022-07-27T04:21:41.376Z,19.82
2022-07-27T04:24:09.295Z,19.84
2022-07-27T04:26:38.494Z,19.85
2022-07-27T04:29:05.932Z,19.86
2022-07-27T04:31:33.295Z,19.86
2022-07-27T04:34:00.698Z,19.87
2022-07-27T04:36:28.170Z,19.88
2022-07-27T04:38:55.513Z,19.91
2022-07-27T04:41:22.941Z,19.97
2022-07-27T04:44:00.129Z,20.02
2022-07-27T04:46:29.890Z,20.04
2022-07-27T04:48:58.037Z,20.03
2022-07-27T04:51:25.718Z,20.02
2022-07-27T04:53:58.737Z,20.00
2022-07-27T04:56:26.579Z,19.99
2022-07-27T04:58:55.026Z,20.00
2022-07-27T05:01:25.502Z,20.02
2022-07-27T05:03:53.143Z,20.06
2022-07-27T05:06:20.642Z,20.11
2022-07-27T05:08:48.165Z,20.13
2022-07-27T05:11:15.601Z,20.18
2022-07-27T05:13:43.007Z,20.22
2022-07-27T05:16:11.547Z,20.25
2022-07-27T05:18:40.655Z,20.29
2022-07-27T05:21:09.679Z,20.34
2022-07-27T05:23:37.223Z,20.39
2022-07-27T05:26:05.152Z,20.45
2022-07-27T05:28:32.459Z,20.47
2022-07-27T05:30:59.975Z,20.52
2022-07-27T05:33:27.373Z,20.56
2022-07-27T05:35:57.229Z,20.61
2022-07-27T05:38:25.811Z,20.67
2022-07-27T05:40:53.346Z,20.72
2022-07-27T05:43:20.937Z,20.78
2022-07-27T05:45:48.582Z,20.80
2022-07-27T05:48:15.954Z,20.83
2022-07-27T05:50:43.777Z,20.87
2022-07-27T05:53:12.961Z,20.88
2022-07-27T05:55:57.803Z,20.87
2022-07-27T05:58:27.199Z,20.94
2022-07-27T06:00:54.617Z,20.98
2022-07-27T06:03:22.263Z,21.06
2022-07-27T06:05:50.141Z,21.14
2022-07-27T06:08:18.876Z,21.20
2022-07-27T06:10:46.266Z,21.21
2022-07-27T06:13:13.951Z,21.21
2022-07-27T06:15:41.490Z,21.24
2022-07-27T06:18:14.962Z,21.26
2022-07-27T06:20:43.211Z,21.32
2022-07-27T06:23:11.054Z,21.36
2022-07-27T06:25:40.402Z,21.42
2022-07-27T06:28:09.111Z,21.50
2022-07-27T06:30:36.552Z,21.57
2022-07-27T06:33:05.047Z,21.64
2022-07-27T06:35:34.070Z,21.67
2022-07-27T06:38:02.039Z,21.72
2022-07-27T06:40:30.141Z,21.75
2022-07-27T06:43:00.084Z,21.77
2022-07-27T06:45:27.876Z,21.83
2022-07-27T06:47:55.281Z,21.91
2022-07-27T06:50:23.026Z,22.01
2022-07-27T06:52:50.607Z,22.11
2022-07-27T06:55:18.128Z,22.19
2022-07-27T06:57:46.546Z,22.27
2022-07-27T07:00:16.533Z,22.34
2022-07-27T07:02:58.070Z,22.40
2022-07-27T07:05:26.561Z,22.49
2022-07-27T07:07:54.484Z,22.55
2022-07-27T07:10:24.111Z,22.59
2022-07-27T07:12:55.574Z,22.67
2022-07-27T07:15:26.384Z,22.76
2022-07-27T07:17:54.350Z,22.87
2022-07-27T07:20:22.469Z,23.01
2022-07-27T07:22:50.347Z,23.18
2022-07-27T07:25:18.000Z,23.34
2022-07-27T07:27:45.360Z,23.46
2022-07-27T07:30:13.725Z,23.49
2022-07-27T07:32:42.655Z,23.45
2022-07-27T07:35:11.707Z,23.41
2022-07-27T07:37:39.288Z,23.39
2022-07-27T07:40:41.515Z,23.38
2022-07-27T07:43:01.069Z,23.36
2022-07-27T07:45:31.144Z,23.33
2022-07-27T07:47:59.865Z,23.38
2022-07-27T07:50:28.655Z,23.44
2022-07-27T07:52:56.599Z,23.51
2022-07-27T07:55:27.324Z,23.58
2022-07-27T07:57:56.792Z,23.65
2022-07-27T08:00:24.917Z,23.74
2022-07-27T08:02:55.784Z,23.89
2022-07-27T08:05:26.143Z,24.13
2022-07-27T08:07:54.677Z,24.48
2022-07-27T08:10:23.305Z,25.03
2022-07-27T08:12:54.257Z,26.11
2022-07-27T08:15:30.022Z,27.43
2022-07-27T08:18:04.484Z,28.77
2022-07-27T08:20:34.275Z,29.95
2022-07-27T08:23:02.667Z,31.09
2022-07-27T08:25:30.535Z,32.05
2022-07-27T08:27:58.172Z,32.28
2022-07-27T08:30:26.294Z,32.57
2022-07-27T08:33:03.945Z,33.42
2022-07-27T08:35:34.636Z,34.27
2022-07-27T08:38:05.825Z,34.75
2022-07-27T08:40:40.186Z,34.80
2022-07-27T08:43:09.949Z,33.97
2022-07-27T08:45:38.565Z,33.62
2022-07-27T08:48:06.900Z,33.58
2022-07-27T08:50:35.739Z,34.08
2022-07-27T08:53:05.894Z,34.04
2022-07-27T08:55:36.590Z,34.20
2022-07-27T08:58:05.039Z,34.28
2022-07-27T09:00:34.800Z,33.43
2022-07-27T09:03:03.270Z,32.34
2022-07-27T09:05:36.791Z,31.33
2022-07-27T09:08:15.144Z,30.44
2022-07-27T09:10:43.055Z,29.80
2022-07-27T09:13:23.991Z,29.01
2022-07-27T09:16:16.748Z,28.39
2022-07-27T09:18:42.973Z,27.73
2022-07-27T09:21:14.353Z,27.25
2022-07-27T09:23:48.277Z,26.86
2022-07-27T09:26:35.523Z,26.60
2022-07-27T09:29:07.060Z,26.42
2022-07-27T09:31:43.004Z,26.42
2022-07-27T09:34:12.108Z,26.39
2022-07-27T09:36:52.813Z,26.53
2022-07-27T09:39:23.517Z,27.25
2022-07-27T09:41:55.549Z,28.77
2022-07-27T09:44:43.811Z,30.60
2022-07-27T09:47:23.198Z,32.69
2022-07-27T09:49:50.699Z,34.08
2022-07-27T09:52:24.145Z,35.04
2022-07-27T09:54:53.594Z,36.05
2022-07-27T09:57:21.071Z,37.06
2022-07-27T09:59:48.450Z,37.80
2022-07-27T10:02:16.228Z,38.41
2022-07-27T10:04:45.007Z,38.36
2022-07-27T10:07:14.259Z,38.07
2022-07-27T10:09:42.028Z,37.92
2022-07-27T10:12:11.278Z,38.12
2022-07-27T10:14:38.721Z,38.71
2022-07-27T10:17:07.692Z,38.29
2022-07-27T10:19:45.150Z,37.52
2022-07-27T10:22:13.107Z,37.12
2022-07-27T10:24:40.554Z,36.68
2022-07-27T10:27:30.063Z,35.48
2022-07-27T10:29:58.476Z,34.40
2022-07-27T10:32:31.276Z,33.26
2022-07-27T10:35:01.117Z,32.18
2022-07-27T10:37:32.134Z,31.26
2022-07-27T10:40:21.182Z,30.50
2022-07-27T10:42:54.264Z,29.78
2022-07-27T10:45:22.685Z,29.27
2022-07-27T10:47:52.434Z,29.61
2022-07-27T10:50:27.367Z,31.01
2022-07-27T10:52:58.848Z,32.39
2022-07-27T10:55:47.215Z,33.16
2022-07-27T10:58:46.147Z,33.03
2022-07-27T11:01:15.507Z,32.63
2022-07-27T11:03:50.988Z,32.14
2022-07-27T11:06:34.658Z,31.55
2022-07-27T11:09:59.948Z,31.10
2022-07-27T11:11:54.348Z,30.50
2022-07-27T11:14:30.114Z,29.99
2022-07-27T11:17:47.304Z,29.54
2022-07-27T11:19:53.839Z,29.08
2022-07-27T11:22:53.574Z,28.80
2022-07-27T11:25:18.204Z,28.59
2022-07-27T11:27:49.613Z,28.38
2022-07-27T11:30:26.444Z,28.14
2022-07-27T11:32:55.323Z,27.89
2022-07-27T11:35:23.320Z,27.69
2022-07-27T11:38:06.675Z,27.47
2022-07-27T11:43:36.852Z,27.58
2022-07-27T11:46:19.944Z,27.64
2022-07-27T11:49:10.546Z,27.57
2022-07-27T11:51:43.223Z,27.41
2022-07-27T11:54:14.323Z,27.28
2022-07-27T11:56:45.462Z,27.13
2022-07-27T11:59:16.877Z,27.00
2022-07-27T12:01:50.036Z,26.92
2022-07-27T12:04:27.019Z,26.93
2022-07-27T12:07:02.227Z,27.05
2022-07-27T12:09:38.444Z,27.17
2022-07-27T12:12:14.392Z,27.21
2022-07-27T12:14:46.097Z,27.28
2022-07-27T12:17:21.767Z,27.29
2022-07-27T12:20:00.189Z,27.32
2022-07-27T12:22:35.300Z,27.38
2022-07-27T12:25:12.633Z,27.48
2022-07-27T12:27:56.506Z,27.58
2022-07-27T12:30:35.783Z,27.65
2022-07-27T12:33:08.180Z,27.62
2022-07-27T12:35:46.977Z,27.51
2022-07-27T12:38:14.544Z,27.46
2022-07-27T12:40:48.389Z,27.31
2022-07-27T12:43:18.494Z,27.21
2022-07-27T12:45:48.163Z,27.07
2022-07-27T12:48:20.612Z,26.89
2022-07-27T12:50:58.379Z,26.71
2022-07-27T12:53:26.080Z,26.63
2022-07-27T12:55:57.302Z,26.60
2022-07-27T12:58:25.538Z,26.64
2022-07-27T13:00:53.237Z,26.76
2022-07-27T13:03:22.670Z,27.19
2022-07-27T13:05:50.086Z,27.62
2022-07-27T13:08:17.746Z,27.93
2022-07-27T13:10:45.561Z,28.02
2022-07-27T13:13:13.517Z,27.99
2022-07-27T13:15:40.986Z,28.08
2022-07-27T13:18:08.674Z,28.16
2022-07-27T13:20:37.449Z,28.28
2022-07-27T13:23:08.831Z,28.32
2022-07-27T13:25:41.097Z,28.38
2022-07-27T13:28:10.620Z,28.41
2022-07-27T13:30:38.179Z,28.48
2022-07-27T13:33:05.705Z,28.64
2022-07-27T13:35:33.335Z,28.65
2022-07-27T13:38:02.172Z,28.48
2022-07-27T13:40:29.546Z,28.40
2022-07-27T13:42:57.393Z,28.60
2022-07-27T13:45:24.778Z,28.80
2022-07-27T13:47:53.868Z,28.83
2022-07-27T13:50:22.195Z,28.73
2022-07-27T13:52:49.861Z,28.56
2022-07-27T13:55:18.743Z,28.40
2022-07-27T13:57:47.310Z,28.37
2022-07-27T14:00:16.251Z,28.27
2022-07-27T14:02:45.475Z,28.34
2022-07-27T14:05:14.495Z,28.61
2022-07-27T14:07:43.697Z,28.65
2022-07-27T14:10:31.212Z,28.42
2022-07-27T14:13:08.442Z,28.13
2022-07-27T14:15:50.830Z,27.95
2022-07-27T14:18:25.210Z,27.84
2022-07-27T14:20:53.613Z,27.92
2022-07-27T14:23:21.183Z,27.98
2022-07-27T14:25:48.763Z,28.00
2022-07-27T14:28:18.541Z,27.90
2022-07-27T14:30:46.495Z,27.76
2022-07-27T14:33:14.211Z,27.57
2022-07-27T14:35:41.690Z,27.40
2022-07-27T14:38:09.384Z,27.31
2022-07-27T14:40:37.057Z,27.35
2022-07-27T14:43:04.929Z,27.40
2022-07-27T14:45:44.908Z,27.46
2022-07-27T14:48:21.020Z,27.49
2022-07-27T14:50:48.601Z,27.48
2022-07-27T14:53:16.111Z,27.50
2022-07-27T14:55:43.740Z,27.49
2022-07-27T14:58:11.935Z,27.41
2022-07-27T15:00:41.566Z,27.28
2022-07-27T15:03:09.161Z,27.29
2022-07-27T15:05:50.621Z,27.37
2022-07-27T15:08:19.449Z,27.52
2022-07-27T15:10:47.166Z,27.66
2022-07-27T15:13:14.935Z,27.90
2022-07-27T15:15:44.034Z,27.97
2022-07-27T15:18:11.456Z,28.10
2022-07-27T15:20:39.006Z,28.08
2022-07-27T15:23:06.827Z,27.98
2022-07-27T15:25:34.261Z,27.83
2022-07-27T15:28:01.602Z,27.71
2022-07-27T15:30:29.205Z,27.59
2022-07-27T15:32:59.160Z,27.56
2022-07-27T15:35:26.497Z,27.57
2022-07-27T15:37:54.569Z,27.56
2022-07-27T15:40:40.716Z,27.55
2022-07-27T15:43:11.769Z,27.49
2022-07-27T15:45:40.721Z,27.53
2022-07-27T15:48:12.102Z,27.56
2022-07-27T15:50:41.574Z,27.49
2022-07-27T15:53:10.989Z,27.33
2022-07-27T15:55:38.832Z,27.19
2022-07-27T15:58:07.291Z,27.10
2022-07-27T16:00:39.525Z,27.03
2022-07-27T16:03:10.895Z,26.94
2022-07-27T16:05:41.199Z,26.80
2022-07-27T16:08:09.954Z,26.69
2022-07-27T16:10:38.352Z,26.83
2022-07-27T16:13:06.323Z,27.05
2022-07-27T16:15:53.357Z,27.45
2022-07-27T16:18:22.588Z,28.07
2022-07-27T16:20:50.456Z,28.26
2022-07-27T16:23:21.175Z,28.15
2022-07-27T16:26:07.855Z,28.15
2022-07-27T16:28:39.194Z,28.17
2022-07-27T16:31:08.967Z,28.08
2022-07-27T16:33:38.054Z,27.85
2022-07-27T16:36:08.278Z,27.61
2022-07-27T16:38:36.783Z,27.46
2022-07-27T16:41:07.283Z,27.46
2022-07-27T16:43:37.254Z,27.41
2022-07-27T16:46:08.273Z,27.43
2022-07-27T16:48:41.809Z,27.49
2022-07-27T16:51:12.068Z,27.51
2022-07-27T16:53:40.787Z,27.42
2022-07-27T16:56:09.240Z,27.31
2022-07-27T16:58:37.887Z,27.21
2022-07-27T17:01:06.116Z,27.15
2022-07-27T17:03:33.453Z,27.16
2022-07-27T17:06:06.172Z,27.14
2022-07-27T17:08:35.783Z,27.12
2022-07-27T17:11:06.167Z,27.11
2022-07-27T17:13:35.388Z,27.03
2022-07-27T17:16:03.697Z,26.99
2022-07-27T17:18:37.123Z,26.94
2022-07-27T17:21:07.496Z,26.84
2022-07-27T17:23:38.064Z,26.73
2022-07-27T17:26:06.789Z,26.53
2022-07-27T17:28:36.746Z,26.35
2022-07-27T17:31:04.873Z,26.24
2022-07-27T17:33:32.613Z,26.16
2022-07-27T17:36:00.534Z,26.09
2022-07-27T17:38:29.433Z,26.03
2022-07-27T17:40:56.906Z,25.95
2022-07-27T17:43:24.285Z,25.82
2022-07-27T17:45:51.683Z,25.68
2022-07-27T17:48:20.517Z,25.58
2022-07-27T17:50:48.087Z,25.48
2022-07-27T17:53:15.602Z,25.39
2022-07-27T17:55:44.457Z,25.28
2022-07-27T17:58:11.927Z,25.23
2022-07-27T18:00:39.556Z,25.24
2022-07-27T18:03:07.010Z,25.26
2022-07-27T18:05:34.536Z,25.27
2022-07-27T18:08:01.923Z,25.26
2022-07-27T18:10:29.347Z,25.22
2022-07-27T18:12:58.070Z,25.19
2022-07-27T18:15:44.333Z,25.16
2022-07-27T18:18:11.728Z,25.14
2022-07-27T18:20:40.023Z,25.14
2022-07-27T18:23:07.705Z,25.16
2022-07-27T18:25:35.056Z,25.13
2022-07-27T18:28:05.185Z,25.09
2022-07-27T18:30:32.537Z,25.01
2022-07-27T18:32:59.876Z,24.90
2022-07-27T18:35:27.431Z,24.80
2022-07-27T18:37:54.804Z,24.71
2022-07-27T18:40:22.210Z,24.62
2022-07-27T18:42:49.602Z,24.52
2022-07-27T18:45:18.442Z,24.43
2022-07-27T18:47:49.273Z,24.34
2022-07-27T18:50:17.593Z,24.23
2022-07-27T18:52:45.072Z,24.16
2022-07-27T18:55:12.630Z,24.12
2022-07-27T18:57:39.947Z,24.10
2022-07-27T19:00:09.361Z,24.07
2022-07-27T19:02:39.618Z,24.03
2022-07-27T19:05:09.251Z,23.94
2022-07-27T19:07:38.301Z,23.87
2022-07-27T19:10:08.766Z,23.82
2022-07-27T19:12:36.135Z,23.79
2022-07-27T19:15:04.426Z,23.73
2022-07-27T19:17:31.776Z,23.69
2022-07-27T19:20:00.602Z,23.63
2022-07-27T19:22:29.116Z,23.58
2022-07-27T19:24:58.074Z,23.52
2022-07-27T19:27:25.950Z,23.50
2022-07-27T19:29:53.392Z,23.47
2022-07-27T19:32:22.571Z,23.45
2022-07-27T19:34:49.931Z,23.41
2022-07-27T19:37:18.684Z,23.38
2022-07-27T19:40:02.131Z,23.34
2022-07-27T19:42:33.427Z,23.29
2022-07-27T19:45:00.864Z,23.26
2022-07-27T19:47:28.216Z,23.21
2022-07-27T19:49:55.834Z,23.17
2022-07-27T19:52:24.572Z,23.13
2022-07-27T19:54:51.956Z,23.07
2022-07-27T19:57:20.167Z,23.04
2022-07-27T19:59:56.317Z,23.00
2022-07-27T20:02:25.044Z,22.95
2022-07-27T20:04:52.545Z,22.94
2022-07-27T20:07:19.967Z,22.90
2022-07-27T20:09:50.473Z,22.86
2022-07-27T20:12:18.178Z,22.86
2022-07-27T20:14:45.593Z,22.88
2022-07-27T20:17:13.253Z,22.90
2022-07-27T20:19:40.706Z,22.89
2022-07-27T20:22:08.215Z,22.88
2022-07-27T20:24:35.586Z,22.84
2022-07-27T20:27:05.259Z,22.81
2022-07-27T20:29:33.582Z,22.82
2022-07-27T20:32:01.187Z,22.83
2022-07-27T20:34:28.702Z,22.86
2022-07-27T20:36:56.778Z,22.88
2022-07-27T20:39:25.379Z,22.89
2022-07-27T20:41:53.131Z,22.89
2022-07-27T20:44:21.948Z,22.89
2022-07-27T20:46:49.285Z,22.86
2022-07-27T20:49:17.535Z,22.83
2022-07-27T20:51:45.427Z,22.78
2022-07-27T20:54:13.566Z,22.75
2022-07-27T20:56:41.047Z,22.71
2022-07-27T20:59:16.341Z,22.65
2022-07-27T21:01:46.060Z,22.62
2022-07-27T21:04:13.520Z,22.59
2022-07-27T21:06:40.996Z,22.60
2022-07-27T21:09:08.833Z,22.58
2022-07-27T21:11:36.343Z,22.56
2022-07-27T21:14:03.970Z,22.53
2022-07-27T21:16:31.603Z,22.49
2022-07-27T21:19:00.325Z,22.45
2022-07-27T21:21:28.176Z,22.40
2022-07-27T21:24:14.672Z,22.37
2022-07-27T21:26:43.340Z,22.27
2022-07-27T21:29:11.246Z,22.22
2022-07-27T21:31:39.372Z,22.18
2022-07-27T21:34:09.169Z,22.12
2022-07-27T21:36:36.549Z,22.05
2022-07-27T21:39:04.149Z,22.01
2022-07-27T21:41:31.813Z,22.00
2022-07-27T21:43:59.299Z,22.02
2022-07-27T21:46:26.874Z,22.07
2022-07-27T21:48:54.573Z,22.15
2022-07-27T21:51:23.506Z,22.19
2022-07-27T21:53:51.075Z,22.21
2022-07-27T21:56:18.829Z,22.23
2022-07-27T21:58:46.339Z,22.21
2022-07-27T22:01:14.671Z,22.21
2022-07-27T22:03:43.148Z,22.21
2022-07-27T22:06:10.817Z,22.18
2022-07-27T22:08:40.166Z,22.14
2022-07-27T22:11:07.530Z,22.11
2022-07-27T22:13:35.209Z,22.05
2022-07-27T22:16:02.931Z,21.99
2022-07-27T22:18:30.495Z,21.94
2022-07-27T22:20:57.923Z,21.92
2022-07-27T22:23:25.485Z,21.90
2022-07-27T22:25:54.483Z,21.87
2022-07-27T22:28:26.394Z,21.85
2022-07-27T22:31:00.118Z,21.84
2022-07-27T22:33:44.555Z,21.87
2022-07-27T22:36:12.635Z,21.91
2022-07-27T22:38:40.077Z,21.97
2022-07-27T22:41:08.796Z,22.03
2022-07-27T22:43:36.392Z,22.07
2022-07-27T22:46:04.681Z,22.09
2022-07-27T22:48:32.431Z,22.08
2022-07-27T22:50:59.992Z,22.10
2022-07-27T22:53:27.346Z,22.10
2022-07-27T22:55:54.896Z,22.11
2022-07-27T22:58:23.608Z,22.15
2022-07-27T23:00:53.547Z,22.16
2022-07-27T23:03:24.787Z,22.19
2022-07-27T23:05:52.170Z,22.22
2022-07-27T23:08:19.552Z,22.26
2022-07-27T23:10:46.951Z,22.30
2022-07-27T23:13:15.548Z,22.32
2022-07-27T23:15:46.186Z,22.33
2022-07-27T23:18:14.194Z,22.30
2022-07-27T23:20:42.596Z,22.26
2022-07-27T23:23:16.814Z,22.23
2022-07-27T23:25:44.515Z,22.20
2022-07-27T23:28:12.478Z,22.17
2022-07-27T23:30:39.819Z,22.16
2022-07-27T23:33:08.750Z,22.16
2022-07-27T23:35:36.421Z,22.16
2022-07-27T23:38:04.049Z,22.16
2022-07-27T23:40:31.566Z,22.14
2022-07-27T23:42:58.923Z,22.13
2022-07-27T23:45:26.617Z,22.05
2022-07-27T23:47:54.270Z,22.00
2022-07-27T23:50:24.501Z,21.94
2022-07-27T23:52:52.277Z,21.88
2022-07-27T23:55:19.659Z,21.80
2022-07-27T23:57:47.230Z,21.68
